Terminal Aerodrome Forecast
Issued by NWS North Platte, NE

Home | Current Version | Previous Version | Text Only | Print | Product List | Glossary Off
Versions: 1 2 3 4 5 6 7 8 9 10 11 12 13 14 15 16 17 18 19 20 21 22

381
FTUS43 KLBF 252320
TAFVTN
TAF
KVTN 252320Z 2600/2624 13009KT P6SM SCT250
     FM260500 14008KT P6SM BKN015
     FM260800 16007KT 5SM BR BKN008
      TEMPO 2610/2613 1/4SM FG BKN003
     FM261500 16006KT 2SM BR OVC015
     FM261700 14005KT P6SM BKN050
     FM262000 06004KT P6SM BKN100
     FM262300 02008KT P6SM BKN080=

USA.gov is the U.S. government's official web portal to all federal, state and local government web resources and services.